CMB833 Details

Departure: Ramstein Air Force Base (ETAR)
Arrival: Bagram Air Base (OAIX) at N/A
Notes: USTRANSCOM CONTRACT FLIGHT


Current Weather Information
ETAR 191556Z AUTO 27011KT 9999 FEW060 24/11 A3007 RMK AO2 SLP179 T02400113 $
OAIX 191558Z 36024G32KT 9999 CLR 25/M02 A2994 RMK AO2A PK WND 35033/25 SLP052 T02541023 $